Time;durP1;ratioP1;P1;durP2;ratioP2;P2;SDS_P1;SDS_P2;PMS_P1;PMS_P2;Temp;Humidity;BMP_temperature;BMP_pressure;BME280_temperature;BME280_humidity;BME280_pressure;Samples;Min_cycle;Max_cycle;Signal;HPM_P1;HPM_P2
2021/06/03 00:01:52;;;;;;;9.18;7.80;;;;;;;18.62;68.51;100304.09;6214580;23;20008;-71
2021/06/03 00:04:17;;;;;;;7.78;7.00;;;;;;;18.56;68.51;100297.09;6217555;23;20008;-71
2021/06/03 00:06:43;;;;;;;7.78;7.07;;;;;;;18.48;68.76;100298.69;6213225;23;20008;-72
2021/06/03 00:09:09;;;;;;;14.38;8.25;;;;;;;18.52;69.08;100298.88;6215536;23;20000;-73
2021/06/03 00:11:35;;;;;;;12.00;8.98;;;;;;;18.40;69.14;100279.28;6223130;23;20035;-74
2021/06/03 00:14:02;;;;;;;6.47;5.93;;;;;;;18.54;68.96;100307.66;6200384;23;20043;-73
2021/06/03 00:16:33;;;;;;;15.98;12.05;;;;;;;18.54;69.42;100302.13;6221523;23;20004;-74
2021/06/03 00:19:00;;;;;;;20.20;11.73;;;;;;;18.53;69.51;100311.59;6220677;23;20083;-73
2021/06/03 00:21:27;;;;;;;13.57;11.57;;;;;;;18.49;69.60;100300.31;6242249;23;20004;-74
2021/06/03 00:23:52;;;;;;;23.98;15.40;;;;;;;18.32;69.64;100280.91;6244485;23;20201;-75
2021/06/03 00:26:20;;;;;;;27.33;16.23;;;;;;;18.27;70.11;100284.66;6213783;23;20062;-75
2021/06/03 00:28:48;;;;;;;17.42;11.73;;;;;;;18.22;70.22;100282.00;6216778;23;20000;-75
2021/06/03 00:31:14;;;;;;;28.45;16.20;;;;;;;18.11;70.99;100277.94;6190075;23;20015;-74
2021/06/03 00:33:41;;;;;;;12.63;10.63;;;;;;;18.08;70.41;100284.09;6244155;23;20000;-76
2021/06/03 00:36:10;;;;;;;25.02;13.90;;;;;;;18.11;70.81;100294.53;6219354;23;20004;-78
2021/06/03 00:38:36;;;;;;;27.23;15.20;;;;;;;17.96;71.26;100288.28;6243135;23;20000;-74
2021/06/03 00:41:02;;;;;;;17.23;11.45;;;;;;;17.90;71.32;100295.09;6218528;23;20011;-74
2021/06/03 00:43:31;;;;;;;17.02;12.02;;;;;;;17.85;71.28;100286.91;6240512;23;20075;-76
2021/06/03 00:45:59;;;;;;;29.48;15.43;;;;;;;17.83;71.46;100294.72;6191007;23;20022;-75
2021/06/03 00:48:28;;;;;;;18.42;13.25;;;;;;;17.81;71.73;100291.44;6241540;23;20000;-75
2021/06/03 00:50:56;;;;;;;19.20;11.93;;;;;;;17.78;71.28;100297.59;6240729;23;20415;-74
2021/06/03 00:53:21;;;;;;;16.48;13.02;;;;;;;17.69;71.74;100294.78;6187102;23;20015;-74
2021/06/03 00:55:51;;;;;;;22.95;15.18;;;;;;;17.62;72.45;100295.25;6211913;23;20335;-75
2021/06/03 00:58:17;;;;;;;22.85;13.45;;;;;;;17.45;72.76;100284.09;6242785;23;20066;-75
2021/06/03 01:00:42;;;;;;;22.00;11.45;;;;;;;17.47;72.80;100303.94;6236154;23;20047;-76
2021/06/03 01:03:09;;;;;;;21.50;13.52;;;;;;;17.30;73.24;100299.09;6241997;23;20015;-75
2021/06/03 01:05:42;;;;;;;19.48;14.30;;;;;;;17.24;73.46;100312.25;6187827;23;20074;-72
2021/06/03 01:08:17;;;;;;;25.17;14.80;;;;;;;17.09;74.02;100304.31;6241560;23;20494;-73
2021/06/03 01:10:55;;;;;;;22.45;14.18;;;;;;;17.01;74.37;100305.06;6240128;23;20012;-74
2021/06/03 01:13:55;;;;;;;23.35;13.57;;;;;;;16.95;74.55;100311.84;6243055;22;20000;-75
2021/06/03 01:16:24;;;;;;;22.15;15.13;;;;;;;16.74;75.10;100315.03;6217487;23;20031;-76
2021/06/03 01:18:50;;;;;;;18.20;12.70;;;;;;;16.70;75.50;100320.34;6185910;23;20060;-75
2021/06/03 01:21:27;;;;;;;20.63;13.75;;;;;;;16.54;75.38;100314.38;6187800;23;20009;-75
2021/06/03 01:24:28;;;;;;;22.55;13.40;;;;;;;16.47;75.95;100322.25;6184398;23;20004;-75
2021/06/03 01:26:58;;;;;;;18.80;13.38;;;;;;;16.35;76.26;100319.16;6187801;23;20108;-76
2021/06/03 01:29:26;;;;;;;20.92;12.93;;;;;;;16.16;76.58;100306.28;6213297;23;20005;-75
2021/06/03 01:31:54;;;;;;;19.75;12.63;;;;;;;16.10;76.45;100318.56;6186752;23;20020;-75
2021/06/03 01:34:22;;;;;;;23.17;13.85;;;;;;;15.99;77.11;100317.09;6183079;23;20009;-76
2021/06/03 01:36:50;;;;;;;25.33;14.50;;;;;;;15.84;77.76;100321.81;6184362;23;20032;-75
2021/06/03 01:39:16;;;;;;;21.65;13.15;;;;;;;15.77;77.79;100315.84;6207476;23;20001;-75
2021/06/03 01:41:45;;;;;;;22.42;13.88;;;;;;;15.75;77.99;100328.28;6186767;23;20483;-74
2021/06/03 01:44:14;;;;;;;30.10;14.10;;;;;;;15.69;78.01;100330.31;6202692;23;20032;-75
2021/06/03 01:46:40;;;;;;;28.13;14.30;;;;;;;15.59;78.14;100336.81;6210851;23;20008;-74
2021/06/03 01:49:05;;;;;;;29.13;14.15;;;;;;;15.54;78.20;100329.47;6211402;23;20004;-72
2021/06/03 01:51:31;;;;;;;25.67;13.95;;;;;;;15.46;78.10;100332.91;6133825;23;20400;-74
2021/06/03 01:53:57;;;;;;;24.17;13.65;;;;;;;15.45;78.18;100336.78;6161283;23;20016;-73
2021/06/03 01:56:23;;;;;;;28.27;14.45;;;;;;;15.41;78.00;100338.50;6208129;23;20013;-74
2021/06/03 01:58:49;;;;;;;24.65;12.88;;;;;;;15.34;78.53;100338.88;6158557;23;20043;-74
2021/06/03 02:01:20;;;;;;;28.40;13.52;;;;;;;15.29;77.72;100336.22;6157971;23;20008;-76
2021/06/03 02:03:46;;;;;;;22.25;13.02;;;;;;;15.18;78.10;100332.78;6187730;23;20014;-74
2021/06/03 02:06:11;;;;;;;28.75;14.68;;;;;;;15.14;78.49;100342.78;6210703;23;19997;-74
2021/06/03 02:08:49;;;;;;;13.18;9.43;;;;;;;15.12;77.97;100336.75;6161377;23;20032;-78
2021/06/03 02:11:19;;;;;;;20.67;11.45;;;;;;;15.19;78.07;100350.97;6180047;23;20012;-79
2021/06/03 02:13:50;;;;;;;12.93;9.70;;;;;;;15.05;77.91;100338.25;6196001;22;20072;-78
2021/06/03 02:16:58;;;;;;;12.77;9.70;;;;;;;15.11;77.90;100340.63;6244945;23;20063;-77
2021/06/03 02:19:38;;;;;;;14.65;9.48;;;;;;;15.20;78.09;100351.78;6219382;23;20004;-77
2021/06/03 02:22:14;;;;;;;11.82;8.98;;;;;;;15.13;77.84;100332.06;6219919;23;20004;-80
2021/06/03 02:24:50;;;;;;;13.20;9.45;;;;;;;15.17;77.02;100328.41;6250361;23;20023;-77
2021/06/03 02:27:17;;;;;;;19.88;11.40;;;;;;;15.43;76.66;100361.03;6249033;23;20016;-79
2021/06/03 02:29:46;;;;;;;16.60;10.77;;;;;;;15.39;76.61;100338.00;6222356;23;20054;-79
2021/06/03 02:32:13;;;;;;;18.90;10.27;;;;;;;15.46;76.27;100343.94;6246750;23;20008;-79
2021/06/03 02:34:47;;;;;;;25.73;13.43;;;;;;;15.45;76.24;100331.28;6219450;23;20000;-78
2021/06/03 02:37:14;;;;;;;31.02;15.70;;;;;;;15.67;76.41;100365.66;6194689;23;20031;-77
2021/06/03 02:39:45;;;;;;;24.30;12.88;;;;;;;15.68;76.19;100362.59;6251661;23;20031;-77
2021/06/03 02:42:11;;;;;;;29.40;13.63;;;;;;;15.66;76.30;100356.53;6220930;23;20004;-78
2021/06/03 02:44:39;;;;;;;29.75;13.90;;;;;;;15.69;75.99;100368.91;6221602;23;20088;-78
2021/06/03 02:47:12;;;;;;;30.85;16.42;;;;;;;15.68;76.32;100367.25;6220040;23;20034;-80
2021/06/03 02:49:40;;;;;;;26.27;16.08;;;;;;;15.71;76.03;100378.50;6221713;23;20010;-79
2021/06/03 02:52:07;;;;;;;34.67;16.42;;;;;;;15.64;75.66;100382.78;6218918;23;20423;-79
2021/06/03 02:54:33;;;;;;;35.03;16.83;;;;;;;15.58;75.87;100383.97;6220195;23;20011;-76
2021/06/03 02:56:58;;;;;;;30.50;16.25;;;;;;;15.41;75.71;100385.34;6219946;23;20004;-76
2021/06/03 02:59:27;;;;;;;31.95;15.77;;;;;;;15.38;75.56;100393.41;6214091;23;19998;-77
2021/06/03 03:02:01;;;;;;;21.13;13.18;;;;;;;15.17;75.51;100375.25;6198208;23;20008;-77
2021/06/03 03:04:29;;;;;;;26.63;13.98;;;;;;;15.17;75.46;100378.00;6217857;23;20106;-75
2021/06/03 03:07:02;;;;;;;15.25;12.02;;;;;;;15.18;75.24;100393.38;6246128;23;20069;-76
2021/06/03 03:09:28;;;;;;;20.55;11.85;;;;;;;15.11;74.95;100384.69;6217956;23;19996;-75
2021/06/03 03:11:53;;;;;;;18.13;10.70;;;;;;;15.05;74.62;100385.88;6192459;23;20446;-75
2021/06/03 03:14:26;;;;;;;15.43;8.73;;;;;;;15.04;74.65;100397.19;6243563;23;20493;-75
2021/06/03 03:16:54;;;;;;;19.42;9.07;;;;;;;15.07;74.70;100419.44;6218441;23;20090;-75
2021/06/03 03:19:22;;;;;;;20.63;11.25;;;;;;;14.94;74.46;100414.69;6188230;23;20015;-75
2021/06/03 03:21:55;;;;;;;15.15;10.30;;;;;;;14.89;74.70;100423.00;6219036;23;20014;-75
2021/06/03 03:24:23;;;;;;;24.52;12.32;;;;;;;14.88;75.04;100432.34;6254873;23;20028;-75
2021/06/03 03:26:49;;;;;;;19.17;12.18;;;;;;;14.78;75.40;100430.56;6259087;23;20008;-75
2021/06/03 03:29:14;;;;;;;27.13;13.30;;;;;;;14.60;75.81;100432.09;6201182;23;20011;-73
2021/06/03 03:31:39;;;;;;;24.40;12.77;;;;;;;14.51;75.67;100444.88;6216361;23;20038;-72
2021/06/03 03:34:05;;;;;;;25.70;13.82;;;;;;;14.41;75.97;100445.78;6241989;23;20008;-74
2021/06/03 03:36:31;;;;;;;27.50;12.50;;;;;;;14.40;75.91;100449.69;6216024;23;20004;-73
2021/06/03 03:38:56;;;;;;;27.60;13.40;;;;;;;14.29;76.28;100457.19;6245120;23;20042;-72
2021/06/03 03:41:22;;;;;;;21.10;12.95;;;;;;;14.20;76.63;100456.19;6215207;23;20012;-74
2021/06/03 03:43:49;;;;;;;21.67;13.32;;;;;;;14.17;77.02;100449.34;6188406;23;20008;-73
2021/06/03 03:46:15;;;;;;;27.83;14.15;;;;;;;14.07;76.98;100453.00;6192640;23;20012;-75
2021/06/03 03:48:48;;;;;;;24.02;13.30;;;;;;;14.03;77.01;100462.13;6214813;23;20004;-76
2021/06/03 03:51:15;;;;;;;21.10;12.48;;;;;;;14.02;76.78;100472.31;6244641;23;20126;-75
2021/06/03 03:53:51;;;;;;;18.23;12.20;;;;;;;14.00;77.24;100471.75;6219359;23;20007;-75
2021/06/03 03:56:17;;;;;;;23.45;13.32;;;;;;;13.87;76.64;100464.16;6195386;23;20015;-75
2021/06/03 03:58:43;;;;;;;15.55;12.32;;;;;;;13.75;76.49;100461.78;6245467;23;20000;-74
2021/06/03 04:01:12;;;;;;;19.73;13.07;;;;;;;13.71;77.15;100478.03;6215066;23;20015;-76
2021/06/03 04:03:40;;;;;;;18.17;12.10;;;;;;;13.57;76.91;100461.38;6219892;23;20008;-76
2021/06/03 04:06:09;;;;;;;13.00;9.93;;;;;;;13.55;76.88;100462.75;6245666;23;20054;-75
2021/06/03 04:08:34;;;;;;;16.08;11.05;;;;;;;13.58;77.08;100473.16;6218763;23;20423;-75
2021/06/03 04:11:09;;;;;;;14.63;10.30;;;;;;;13.55;77.52;100469.09;6193279;23;20015;-75
2021/06/03 04:13:35;;;;;;;13.38;10.80;;;;;;;13.49;77.20;100478.47;6244892;23;20004;-75
2021/06/03 04:16:05;;;;;;;13.70;10.75;;;;;;;13.42;77.11;100481.50;6216495;23;20086;-74
2021/06/03 04:18:30;;;;;;;12.52;9.80;;;;;;;13.39;76.60;100487.56;6218777;23;20077;-76
2021/06/03 04:20:56;;;;;;;9.40;8.13;;;;;;;13.56;76.52;100497.38;6216462;23;20366;-75
2021/06/03 04:23:22;;;;;;;7.60;6.80;;;;;;;13.55;76.56;100490.22;6243826;23;20007;-75
2021/06/03 04:25:47;;;;;;;11.30;9.13;;;;;;;13.63;76.58;100492.38;6244570;23;20054;-74
2021/06/03 04:28:12;;;;;;;9.07;8.27;;;;;;;13.59;76.47;100502.28;6214755;23;20004;-75
2021/06/03 04:30:40;;;;;;;9.75;7.93;;;;;;;13.59;75.67;100502.28;6190990;23;20019;-75
2021/06/03 04:33:10;;;;;;;12.35;8.20;;;;;;;13.59;75.63;100496.78;6216337;23;20000;-75
2021/06/03 04:35:36;;;;;;;16.38;9.13;;;;;;;13.56;75.75;100489.94;6218313;23;20004;-75
2021/06/03 04:38:04;;;;;;;10.57;7.35;;;;;;;13.63;75.32;100502.56;6189428;23;20035;-74
2021/06/03 04:40:31;;;;;;;8.40;7.63;;;;;;;13.69;75.60;100513.22;6244140;23;20003;-75
2021/06/03 04:43:00;;;;;;;7.38;6.78;;;;;;;13.71;75.24;100505.53;6191561;23;20518;-76
2021/06/03 04:45:26;;;;;;;7.85;7.15;;;;;;;13.80;75.42;100524.97;6191394;23;20012;-75
2021/06/03 04:47:52;;;;;;;10.82;6.80;;;;;;;13.79;75.23;100513.13;6240451;23;20119;-73
2021/06/03 04:50:24;;;;;;;7.82;5.40;;;;;;;13.76;74.94;100519.22;6238223;23;20011;-74
2021/06/03 04:52:50;;;;;;;11.68;6.50;;;;;;;13.77;75.08;100504.38;6212473;23;20000;-75
2021/06/03 04:55:20;;;;;;;7.45;6.68;;;;;;;13.94;74.62;100534.22;6244053;23;20004;-75
2021/06/03 04:57:47;;;;;;;7.80;5.43;;;;;;;13.83;74.83;100518.06;6240814;22;20434;-75
2021/06/03 05:00:16;;;;;;;8.38;6.45;;;;;;;13.91;74.75;100532.03;6247388;22;20027;-75
2021/06/03 05:02:42;;;;;;;10.65;6.22;;;;;;;13.90;74.19;100524.06;6247416;22;20007;-76
2021/06/03 05:05:11;;;;;;;6.07;5.53;;;;;;;13.94;74.19;100525.97;6247186;22;20342;-73
2021/06/03 05:07:37;;;;;;;5.20;4.72;;;;;;;14.00;73.81;100531.44;6270164;22;20011;-74
2021/06/03 05:10:06;;;;;;;7.70;5.38;;;;;;;14.10;73.56;100551.41;6246318;22;20386;-74
2021/06/03 05:12:33;;;;;;;5.40;4.55;;;;;;;14.06;73.29;100533.84;6271745;22;20491;-73
2021/06/03 05:14:59;;;;;;;5.35;4.80;;;;;;;14.04;72.62;100541.56;6271248;22;20019;-72
2021/06/03 05:17:25;;;;;;;5.85;5.00;;;;;;;14.07;72.56;100551.97;6275920;22;20078;-73
2021/06/03 05:19:50;;;;;;;6.72;4.25;;;;;;;14.05;72.13;100547.91;6248182;22;20012;-76
2021/06/03 05:22:16;;;;;;;6.55;4.45;;;;;;;14.07;72.26;100549.22;6222487;22;20011;-73
2021/06/03 05:24:42;;;;;;;5.32;4.43;;;;;;;14.07;72.38;100538.22;6273488;22;20027;-74
2021/06/03 05:27:08;;;;;;;9.75;4.80;;;;;;;14.06;71.92;100533.03;6249090;22;20477;-75
2021/06/03 05:29:36;;;;;;;6.00;4.85;;;;;;;14.06;72.00;100544.03;6247341;22;20033;-74
2021/06/03 05:32:02;;;;;;;9.77;4.90;;;;;;;14.16;71.92;100559.63;6249011;22;20007;-73
2021/06/03 05:34:28;;;;;;;6.90;5.20;;;;;;;14.13;71.84;100545.34;6270604;22;20004;-73
2021/06/03 05:36:58;;;;;;;11.20;5.28;;;;;;;14.24;71.00;100559.03;6222872;22;20076;-74
2021/06/03 05:39:23;;;;;;;6.13;5.47;;;;;;;14.14;71.39;100551.66;6275428;22;20008;-74
2021/06/03 05:41:51;;;;;;;5.18;4.75;;;;;;;14.13;71.24;100539.84;6273579;22;20038;-75
2021/06/03 05:44:17;;;;;;;5.63;4.60;;;;;;;14.30;71.07;100563.38;6247870;22;20090;-76
2021/06/03 05:46:42;;;;;;;7.95;4.40;;;;;;;14.40;70.92;100568.78;6222690;22;20039;-73
2021/06/03 05:49:09;;;;;;;10.15;5.60;;;;;;;14.54;70.83;100563.41;6238890;22;20300;-74
2021/06/03 05:51:37;;;;;;;6.53;4.63;;;;;;;14.62;70.80;100573.03;6275458;22;20027;-74
2021/06/03 05:54:07;;;;;;;5.57;4.32;;;;;;;14.66;70.15;100565.84;6273325;22;20007;-74
2021/06/03 05:56:35;;;;;;;7.75;4.28;;;;;;;14.72;69.88;100567.44;6272084;22;20441;-73
2021/06/03 05:59:05;;;;;;;10.15;4.78;;;;;;;14.74;69.76;100565.19;6245994;22;20004;-73
2021/06/03 06:01:35;;;;;;;7.97;4.97;;;;;;;14.73;69.72;100574.56;6244534;22;20035;-74
2021/06/03 06:04:19;;;;;;;5.20;4.85;;;;;;;14.71;69.15;100554.78;6242825;22;20000;-73
2021/06/03 06:06:47;;;;;;;4.82;4.13;;;;;;;14.79;69.28;100572.56;6250977;22;20010;-73
2021/06/03 06:09:14;;;;;;;4.03;3.65;;;;;;;14.87;68.99;100571.94;6253922;22;20037;-74
2021/06/03 06:11:39;;;;;;;8.82;4.53;;;;;;;14.95;68.68;100567.72;6254262;22;20012;-77
2021/06/03 06:14:06;;;;;;;10.10;4.43;;;;;;;15.07;68.59;100572.84;6278371;22;20039;-77
2021/06/03 06:16:32;;;;;;;7.00;4.55;;;;;;;14.98;68.12;100542.38;6228802;22;20023;-81
2021/06/03 06:19:01;;;;;;;5.47;4.28;;;;;;;15.19;68.37;100545.72;6258676;22;20003;-82
2021/06/03 06:21:27;;;;;;;5.65;4.03;;;;;;;15.44;67.74;100563.84;6259086;22;19999;-81
2021/06/03 06:24:13;;;;;;;3.55;3.30;;;;;;;15.65;67.35;100582.88;6276971;22;20008;-77
2021/06/03 06:26:51;;;;;;;;;;;;;;;;;;;;;
2021/06/03 06:29:16;;;;;;;4.18;3.70;;;;;;;15.68;66.18;100585.88;6283044;22;20351;-79
2021/06/03 06:31:45;;;;;;;14.00;4.28;;;;;;;15.62;65.28;100577.94;6255582;22;20015;-80
2021/06/03 06:34:17;;;;;;;5.55;4.28;;;;;;;15.68;65.77;100587.78;6230735;22;20061;-79
2021/06/03 06:36:50;;;;;;;4.10;3.20;;;;;;;15.73;65.88;100584.16;6282019;22;20042;-78
2021/06/03 06:39:28;;;;;;;;;;;;;;;;;;;;;
2021/06/03 06:41:54;;;;;;;6.97;3.33;;;;;;;16.05;65.09;100602.75;6254730;22;20071;-79
2021/06/03 06:44:26;;;;;;;7.63;3.58;;;;;;;16.21;64.64;100611.63;6249593;22;20488;-78
2021/06/03 06:46:54;;;;;;;3.20;2.90;;;;;;;16.23;64.19;100612.94;6228958;22;20010;-79
2021/06/03 06:49:22;;;;;;;2.88;2.78;;;;;;;16.37;63.93;100603.94;6229476;22;20150;-80
2021/06/03 06:51:48;;;;;;;8.93;2.95;;;;;;;16.57;63.82;100617.38;6271939;22;20333;-79
2021/06/03 06:54:15;;;;;;;4.10;2.60;;;;;;;16.62;62.61;100610.13;6248905;22;20086;-76
2021/06/03 06:56:44;;;;;;;2.80;2.45;;;;;;;16.59;62.13;100600.53;6247829;22;20003;-78
2021/06/03 06:59:10;;;;;;;2.90;2.67;;;;;;;16.75;62.14;100614.88;6278936;22;20049;-80
2021/06/03 07:01:44;;;;;;;8.13;2.60;;;;;;;16.65;61.47;100604.81;6249565;22;20004;-82
2021/06/03 07:04:17;;;;;;;2.25;2.05;;;;;;;16.62;61.44;100610.97;6252754;22;20090;-80
2021/06/03 07:06:43;;;;;;;4.88;2.85;;;;;;;16.83;61.22;100638.22;6253000;22;20331;-79
2021/06/03 07:09:16;;;;;;;3.35;2.05;;;;;;;16.81;60.86;100618.38;6277922;22;20002;-78
2021/06/03 07:11:42;;;;;;;4.38;1.95;;;;;;;16.89;60.47;100612.16;6271438;22;20008;-78
2021/06/03 07:14:10;;;;;;;2.35;1.90;;;;;;;17.05;60.61;100618.22;6277369;22;20023;-79
2021/06/03 07:16:38;;;;;;;2.00;1.90;;;;;;;17.35;59.95;100643.66;6230845;22;20004;-80
2021/06/03 07:19:03;;;;;;;1.92;1.83;;;;;;;17.30;59.15;100610.56;6202154;22;20066;-79
2021/06/03 07:21:30;;;;;;;1.98;1.88;;;;;;;17.35;59.03;100616.03;6251747;22;20003;-79
2021/06/03 07:24:04;;;;;;;1.67;1.60;;;;;;;17.16;59.04;100597.56;6281273;22;20087;-78
2021/06/03 07:26:29;;;;;;;1.80;1.70;;;;;;;17.09;58.77;100592.44;6252700;22;19999;-79
2021/06/03 07:29:12;;;;;;;2.08;1.83;;;;;;;17.14;58.81;100630.22;6252738;22;20007;-79
2021/06/03 07:31:38;;;;;;;2.85;1.88;;;;;;;17.01;58.93;100614.44;6278857;22;20089;-79
2021/06/03 07:34:05;;;;;;;2.03;1.40;;;;;;;17.36;59.20;100646.13;6226799;22;20094;-80
2021/06/03 07:36:42;;;;;;;;;;;;;;;;;;;;;
2021/06/03 07:39:11;;;;;;;4.40;1.80;;;;;;;17.78;58.07;100626.72;6297544;22;19999;-80
2021/06/03 07:41:44;;;;;;;1.95;1.45;;;;;;;18.11;57.79;100648.72;6296944;22;20008;-79
2021/06/03 07:44:09;;;;;;;1.70;1.60;;;;;;;18.13;57.14;100635.38;6242504;22;20010;-79
2021/06/03 07:46:36;;;;;;;3.92;2.40;;;;;;;18.09;56.37;100639.91;6253107;22;20047;-79
2021/06/03 07:49:05;;;;;;;1.77;1.67;;;;;;;17.99;55.98;100659.50;6249706;22;20869;-80
2021/06/03 07:51:33;;;;;;;2.97;2.40;;;;;;;17.99;56.48;100673.34;6274882;22;20011;-79
2021/06/03 07:53:59;;;;;;;9.15;2.40;;;;;;;17.73;56.85;100648.97;6246354;22;20027;-78
2021/06/03 07:56:25;;;;;;;3.65;1.85;;;;;;;17.78;56.73;100671.81;6250589;22;20421;-79
2021/06/03 07:58:51;;;;;;;1.20;1.20;;;;;;;17.84;57.34;100666.97;6248428;22;20008;-79
2021/06/03 08:01:17;;;;;;;1.73;1.63;;;;;;;17.91;57.40;100650.81;6249067;22;20069;-78
2021/06/03 08:03:42;;;;;;;5.35;2.63;;;;;;;18.26;56.44;100678.81;6278162;22;20019;-78
2021/06/03 08:06:08;;;;;;;1.92;1.70;;;;;;;18.30;56.55;100663.22;6249093;22;19999;-77
2021/06/03 08:08:37;;;;;;;2.78;1.98;;;;;;;18.36;56.06;100668.66;6222117;22;20039;-78
2021/06/03 08:11:29;;;;;;;2.67;2.20;;;;;;;18.26;56.26;100673.25;6249439;22;20127;-77
2021/06/03 08:13:57;;;;;;;4.15;2.10;;;;;;;18.29;56.77;100680.13;6249774;22;20426;-77
2021/06/03 08:16:25;;;;;;;2.03;1.85;;;;;;;18.40;56.32;100689.00;6275195;22;20334;-77
2021/06/03 08:18:53;;;;;;;1.33;1.27;;;;;;;18.40;56.27;100672.41;6277213;22;19995;-78
2021/06/03 08:21:26;;;;;;;2.42;2.33;;;;;;;18.54;54.97;100700.88;6248337;22;20006;-78
2021/06/03 08:23:52;;;;;;;2.85;2.38;;;;;;;18.35;55.24;100681.66;6247459;22;20482;-78
2021/06/03 08:26:32;;;;;;;2.97;2.20;;;;;;;18.33;55.61;100674.81;6273140;22;20037;-78
2021/06/03 08:28:58;;;;;;;2.80;2.10;;;;;;;18.47;55.06;100700.47;6277445;22;20362;-78
2021/06/03 08:31:26;;;;;;;4.45;2.13;;;;;;;18.57;54.53;100713.28;6247641;22;20011;-77
2021/06/03 08:34:01;;;;;;;2.35;1.65;;;;;;;18.66;54.88;100709.44;6244064;22;20012;-76
2021/06/03 08:36:27;;;;;;;2.53;2.33;;;;;;;18.71;54.20;100689.13;6245815;22;20129;-78
2021/06/03 08:39:00;;;;;;;3.28;2.17;;;;;;;18.72;53.55;100689.91;6248989;22;20007;-77
2021/06/03 08:41:36;;;;;;;;;;;;;;;;;;;;;
2021/06/03 08:44:03;;;;;;;2.35;1.20;;;;;;;19.01;53.97;100706.97;6275341;22;20087;-77
2021/06/03 08:46:35;;;;;;;2.20;1.92;;;;;;;19.14;52.89;100713.56;6248309;22;20003;-78
2021/06/03 08:49:09;;;;;;;4.63;1.70;;;;;;;19.14;52.56;100691.38;6243632;22;20087;-77
2021/06/03 08:51:42;;;;;;;2.00;1.83;;;;;;;19.41;52.96;100691.53;6249327;22;20016;-79
2021/06/03 08:54:10;;;;;;;1.60;1.50;;;;;;;19.46;51.46;100705.22;6225475;22;20008;-77
2021/06/03 08:56:35;;;;;;;2.78;1.58;;;;;;;19.35;51.85;100694.41;6251275;22;20007;-78
2021/06/03 08:59:05;;;;;;;2.05;1.92;;;;;;;19.44;52.15;100696.44;6251281;22;20007;-78
2021/06/03 09:01:30;;;;;;;1.80;1.33;;;;;;;19.55;51.04;100700.53;6251053;22;20078;-78
2021/06/03 09:03:57;;;;;;;3.78;1.08;;;;;;;19.73;51.40;100706.97;6246099;22;20030;-76
2021/06/03 09:06:26;;;;;;;1.63;1.30;;;;;;;19.69;50.89;100695.69;6250705;22;20007;-77
2021/06/03 09:08:59;;;;;;;1.83;1.52;;;;;;;19.77;50.83;100707.16;6273927;22;19996;-76
2021/06/03 09:11:33;;;;;;;1.45;1.35;;;;;;;19.73;50.83;100712.53;6275430;22;20406;-80
2021/06/03 09:14:05;;;;;;;1.57;1.20;;;;;;;19.73;50.68;100718.06;6250308;22;20046;-78
2021/06/03 09:16:36;;;;;;;1.60;0.80;;;;;;;19.79;51.29;100704.91;6276423;22;20057;-79
2021/06/03 09:19:19;;;;;;;0.75;0.73;;;;;;;19.87;51.07;100701.31;6251304;22;20352;-78
2021/06/03 09:21:51;;;;;;;2.17;1.10;;;;;;;19.85;50.22;100692.53;6252790;22;20061;-79
2021/06/03 09:24:18;;;;;;;1.48;1.08;;;;;;;19.83;50.62;100723.38;6279056;22;20006;-79
2021/06/03 09:26:55;;;;;;;4.30;1.33;;;;;;;19.72;50.45;100721.97;6278287;22;19999;-78
2021/06/03 09:29:25;;;;;;;2.28;1.55;;;;;;;19.69;50.77;100715.09;6279002;22;20024;-79
2021/06/03 09:36:15;;;;;;;4.80;1.20;;;;;;;20.32;49.90;100728.03;6137772;23;20306;-77
2021/06/03 09:39:11;;;;;;;1.73;1.35;;;;;;;20.57;49.19;100734.75;6128407;23;20013;-78
2021/06/03 10:11:27;;;;;;;;;;;;;;;;;;;;;
2021/06/03 10:14:27;;;;;;;0.80;0.75;;;;;;;21.66;45.30;100741.16;6309180;22;20086;-81
2021/06/03 10:17:03;;;;;;;;;;;;;;;;;;;;;
2021/06/03 10:19:29;;;;;;;2.78;0.82;;;;;;;21.54;45.14;100755.78;6307879;22;20074;-79
2021/06/03 10:22:13;;;;;;;4.95;0.90;;;;;;;21.68;44.84;100766.69;6282017;22;20396;-79
2021/06/03 10:24:53;;;;;;;0.90;0.85;;;;;;;21.39;44.85;100765.47;6279865;22;20072;-79
2021/06/03 10:27:26;;;;;;;2.60;0.90;;;;;;;21.28;45.16;100755.81;6286370;22;20448;-82
2021/06/03 10:29:53;;;;;;;1.05;0.77;;;;;;;21.47;45.86;100772.13;6255944;22;20315;-80
2021/06/03 10:32:24;;;;;;;0.82;0.75;;;;;;;21.64;45.34;100754.59;6311015;22;20075;-78
2021/06/03 10:35:13;;;;;;;2.50;0.75;;;;;;;22.02;44.22;100770.47;6309109;22;20018;-80
2021/06/03 10:37:40;;;;;;;2.60;0.70;;;;;;;22.11;43.69;100756.50;6282638;22;20048;-80
2021/06/03 10:40:16;;;;;;;0.50;0.40;;;;;;;22.58;44.36;100772.28;6310959;22;20059;-81
2021/06/03 10:42:59;;;;;;;0.93;0.60;;;;;;;23.22;43.60;100764.69;6283541;22;20018;-81
2021/06/03 10:45:26;;;;;;;0.70;0.68;;;;;;;23.56;41.26;100779.44;6281309;22;20068;-80
2021/06/03 10:47:55;;;;;;;2.00;0.65;;;;;;;23.40;40.74;100771.72;6287575;22;20425;-78
2021/06/03 10:50:27;;;;;;;1.02;0.80;;;;;;;24.07;42.04;100771.59;6290987;22;20025;-79
2021/06/03 10:53:09;;;;;;;5.57;0.70;;;;;;;25.16;38.90;100770.91;6285778;22;20029;-79
2021/06/03 10:55:39;;;;;;;0.90;0.52;;;;;;;26.07;37.95;100768.47;6313280;22;20018;-80
2021/06/03 10:58:13;;;;;;;0.63;0.47;;;;;;;27.39;38.14;100785.75;6285512;22;20006;-80
2021/06/03 11:01:01;;;;;;;0.57;0.50;;;;;;;28.44;32.59;100782.66;6290480;22;19999;-81
2021/06/03 11:03:41;;;;;;;0.32;0.30;;;;;;;29.29;33.72;100781.34;6287412;22;20000;-80
2021/06/03 11:06:36;;;;;;;0.98;0.30;;;;;;;30.11;30.11;100790.59;6289380;22;20015;-80
2021/06/03 11:09:07;;;;;;;0.27;0.20;;;;;;;30.72;28.77;100781.69;6266147;22;20022;-81
2021/06/03 11:11:44;;;;;;;0.40;0.30;;;;;;;31.17;29.46;100789.16;6286124;22;20002;-82
2021/06/03 11:14:25;;;;;;;;;;;;;;;;;;;;;
2021/06/03 11:17:00;;;;;;;1.00;0.50;;;;;;;32.92;27.93;100792.34;6313137;22;20018;-82
2021/06/03 11:19:38;;;;;;;0.52;0.20;;;;;;;33.75;25.66;100787.81;6284799;22;19999;-82
2021/06/03 11:22:31;;;;;;;0.20;0.20;;;;;;;33.28;24.50;100797.81;6287004;22;20078;-81
2021/06/03 11:25:04;;;;;;;1.13;0.50;;;;;;;31.54;25.21;100786.00;6279376;22;20007;-82
2021/06/03 11:28:18;;;;;;;0.85;0.35;;;;;;;29.96;27.08;100790.88;6312678;22;20010;-81
2021/06/03 11:31:06;;;;;;;;;;;;;;;;;;;;;
2021/06/03 11:34:05;;;;;;;0.93;0.30;;;;;;;28.39;30.00;100792.25;6287833;22;20381;-79
2021/06/03 11:36:31;;;;;;;1.35;0.50;;;;;;;27.45;30.91;100784.25;6316344;22;20018;-82
2021/06/03 11:39:04;;;;;;;1.05;0.30;;;;;;;26.82;32.63;100772.16;6294694;22;20086;-78
2021/06/03 11:41:41;;;;;;;1.15;0.60;;;;;;;26.17;32.69;100789.50;6314342;22;20003;-80
2021/06/03 11:44:08;;;;;;;1.88;0.50;;;;;;;25.56;34.46;100786.78;6283940;22;20009;-79
2021/06/03 11:46:48;;;;;;;2.75;0.65;;;;;;;25.19;34.99;100786.97;6280768;22;19996;-80
2021/06/03 11:49:45;;;;;;;2.35;0.50;;;;;;;25.12;35.85;100789.56;6283862;22;20093;-81
2021/06/03 11:52:13;;;;;;;0.63;0.50;;;;;;;25.26;35.70;100806.75;6264257;22;20033;-78
2021/06/03 11:55:03;;;;;;;1.50;0.65;;;;;;;25.86;35.02;100797.56;6311236;22;19999;-81
2021/06/03 11:57:31;;;;;;;1.65;0.65;;;;;;;25.67;34.97;100777.84;6284184;22;19999;-79
2021/06/03 12:00:13;;;;;;;2.58;0.35;;;;;;;25.37;35.09;100783.88;6282984;22;19999;-80
2021/06/03 12:02:44;;;;;;;0.52;0.35;;;;;;;24.75;36.26;100806.50;6260498;22;20007;-79
2021/06/03 12:05:12;;;;;;;0.98;0.40;;;;;;;24.44;37.52;100819.06;6311178;22;20004;-80
2021/06/03 12:08:02;;;;;;;0.52;0.30;;;;;;;24.62;37.63;100818.84;6286515;22;20015;-80
2021/06/03 12:10:33;;;;;;;2.05;0.88;;;;;;;24.86;37.01;100829.97;6310892;22;20014;-80
2021/06/03 12:12:59;;;;;;;0.75;0.45;;;;;;;24.94;36.81;100814.25;6288532;22;20094;-80
2021/06/03 12:15:27;;;;;;;0.95;0.70;;;;;;;25.34;37.43;100820.97;6254893;22;20098;-80
2021/06/03 12:18:06;;;;;;;0.60;0.47;;;;;;;25.95;35.81;100812.19;6287141;22;20003;-80
2021/06/03 12:20:34;;;;;;;2.97;0.50;;;;;;;25.96;36.35;100808.22;6287085;22;20041;-80